sensor_id;sensor_type;location;lat;lon;timestamp;pressure;altitude;pressure_sealevel;temperature;humidity
14253;BME280;7210;51.502;10.722;2022-11-12T00:01:35;101287.09;;;1.89;100.00
14253;BME280;7210;51.502;10.722;2022-11-12T00:04:21;101284.19;;;1.83;100.00
14253;BME280;7210;51.502;10.722;2022-11-12T00:07:07;101288.84;;;1.79;100.00
14253;BME280;7210;51.502;10.722;2022-11-12T00:09:58;101292.69;;;1.75;100.00
14253;BME280;7210;51.502;10.722;2022-11-12T00:12:44;101287.69;;;1.72;100.00
14253;BME280;7210;51.502;10.722;2022-11-12T00:15:30;101293.75;;;1.73;100.00
14253;BME280;7210;51.502;10.722;2022-11-12T00:18:16;101298.97;;;1.73;100.00
14253;BME280;7210;51.502;10.722;2022-11-12T00:21:02;101271.19;;;1.62;100.00
14253;BME280;7210;51.502;10.722;2022-11-12T00:23:48;101294.25;;;1.67;100.00
14253;BME280;7210;51.502;10.722;2022-11-12T00:26:35;101296.19;;;1.65;100.00
14253;BME280;7210;51.502;10.722;2022-11-12T00:29:21;101293.19;;;1.69;100.00
14253;BME280;7210;51.502;10.722;2022-11-12T00:32:07;101308.91;;;1.79;100.00
14253;BME280;7210;51.502;10.722;2022-11-12T00:34:53;101289.69;;;1.80;100.00
14253;BME280;7210;51.502;10.722;2022-11-12T00:37:39;101298.75;;;1.85;100.00
14253;BME280;7210;51.502;10.722;2022-11-12T00:40:28;101305.91;;;1.83;100.00
14253;BME280;7210;51.502;10.722;2022-11-12T00:43:16;101307.53;;;1.84;100.00
14253;BME280;7210;51.502;10.722;2022-11-12T00:46:01;101312.88;;;1.83;100.00
14253;BME280;7210;51.502;10.722;2022-11-12T00:48:48;101311.03;;;1.74;100.00
14253;BME280;7210;51.502;10.722;2022-11-12T00:51:33;101302.00;;;1.57;100.00
14253;BME280;7210;51.502;10.722;2022-11-12T00:54:20;101320.91;;;1.70;100.00
14253;BME280;7210;51.502;10.722;2022-11-12T00:57:06;101321.75;;;1.71;100.00
14253;BME280;7210;51.502;10.722;2022-11-12T00:59:53;101315.22;;;1.65;100.00
14253;BME280;7210;51.502;10.722;2022-11-12T01:02:39;101313.97;;;1.60;100.00
14253;BME280;7210;51.502;10.722;2022-11-12T01:05:24;101313.59;;;1.64;100.00
14253;BME280;7210;51.502;10.722;2022-11-12T01:08:10;101310.28;;;1.62;100.00
14253;BME280;7210;51.502;10.722;2022-11-12T01:11:04;101292.13;;;1.51;100.00
14253;BME280;7210;51.502;10.722;2022-11-12T01:13:55;101305.38;;;1.48;100.00
14253;BME280;7210;51.502;10.722;2022-11-12T01:16:43;101297.75;;;1.36;100.00
14253;BME280;7210;51.502;10.722;2022-11-12T01:19:28;101298.34;;;1.39;100.00
14253;BME280;7210;51.502;10.722;2022-11-12T01:22:14;101297.94;;;1.44;100.00
14253;BME280;7210;51.502;10.722;2022-11-12T01:25:00;101299.53;;;1.35;100.00
14253;BME280;7210;51.502;10.722;2022-11-12T01:27:51;101298.41;;;1.28;100.00
14253;BME280;7210;51.502;10.722;2022-11-12T01:30:38;101293.34;;;1.16;100.00
14253;BME280;7210;51.502;10.722;2022-11-12T01:33:25;101287.31;;;1.15;100.00
14253;BME280;7210;51.502;10.722;2022-11-12T01:36:13;101286.38;;;1.16;100.00
14253;BME280;7210;51.502;10.722;2022-11-12T01:38:59;101288.97;;;1.16;100.00
14253;BME280;7210;51.502;10.722;2022-11-12T01:41:45;101295.13;;;1.15;100.00
14253;BME280;7210;51.502;10.722;2022-11-12T01:44:33;101293.59;;;1.13;100.00
14253;BME280;7210;51.502;10.722;2022-11-12T01:47:23;101288.88;;;1.07;100.00
14253;BME280;7210;51.502;10.722;2022-11-12T01:50:16;101284.50;;;1.07;100.00
14253;BME280;7210;51.502;10.722;2022-11-12T01:53:15;101278.84;;;1.02;100.00
14253;BME280;7210;51.502;10.722;2022-11-12T01:56:05;101269.75;;;0.97;100.00
14253;BME280;7210;51.502;10.722;2022-11-12T01:58:59;101271.78;;;0.93;100.00
14253;BME280;7210;51.502;10.722;2022-11-12T02:01:47;101268.72;;;0.88;100.00
14253;BME280;7210;51.502;10.722;2022-11-12T02:04:35;101263.56;;;0.77;100.00
14253;BME280;7210;51.502;10.722;2022-11-12T02:07:24;101275.94;;;0.85;100.00
14253;BME280;7210;51.502;10.722;2022-11-12T02:10:11;101271.09;;;0.80;100.00
14253;BME280;7210;51.502;10.722;2022-11-12T02:12:58;101278.91;;;0.80;100.00
14253;BME280;7210;51.502;10.722;2022-11-12T02:16:03;101285.06;;;0.79;100.00
14253;BME280;7210;51.502;10.722;2022-11-12T02:18:49;101275.81;;;0.86;100.00
14253;BME280;7210;51.502;10.722;2022-11-12T02:21:36;101279.22;;;0.98;100.00
14253;BME280;7210;51.502;10.722;2022-11-12T02:24:33;101281.78;;;1.09;100.00
14253;BME280;7210;51.502;10.722;2022-11-12T02:27:22;101282.59;;;1.09;100.00
14253;BME280;7210;51.502;10.722;2022-11-12T02:30:09;101284.25;;;1.10;100.00
14253;BME280;7210;51.502;10.722;2022-11-12T02:32:55;101284.75;;;1.04;100.00
14253;BME280;7210;51.502;10.722;2022-11-12T02:35:45;101278.16;;;1.00;100.00
14253;BME280;7210;51.502;10.722;2022-11-12T02:38:32;101281.63;;;0.90;100.00
14253;BME280;7210;51.502;10.722;2022-11-12T02:41:18;101276.09;;;0.83;100.00
14253;BME280;7210;51.502;10.722;2022-11-12T02:44:04;101290.16;;;0.81;100.00
14253;BME280;7210;51.502;10.722;2022-11-12T02:46:50;101284.25;;;0.79;100.00
14253;BME280;7210;51.502;10.722;2022-11-12T02:49:35;101281.19;;;0.74;100.00
14253;BME280;7210;51.502;10.722;2022-11-12T02:52:21;101290.31;;;0.68;100.00
14253;BME280;7210;51.502;10.722;2022-11-12T02:55:11;101282.63;;;0.67;100.00
14253;BME280;7210;51.502;10.722;2022-11-12T02:57:58;101275.56;;;0.58;100.00
14253;BME280;7210;51.502;10.722;2022-11-12T03:00:44;101286.28;;;0.64;100.00
14253;BME280;7210;51.502;10.722;2022-11-12T03:03:29;101282.03;;;0.63;100.00
14253;BME280;7210;51.502;10.722;2022-11-12T03:06:15;101293.72;;;0.69;100.00
14253;BME280;7210;51.502;10.722;2022-11-12T03:09:01;101297.13;;;0.80;100.00
14253;BME280;7210;51.502;10.722;2022-11-12T03:14:40;101291.22;;;0.78;100.00
14253;BME280;7210;51.502;10.722;2022-11-12T03:17:26;101296.44;;;0.78;100.00
14253;BME280;7210;51.502;10.722;2022-11-12T03:20:12;101300.63;;;0.70;100.00
14253;BME280;7210;51.502;10.722;2022-11-12T03:23:01;101296.00;;;0.62;100.00
14253;BME280;7210;51.502;10.722;2022-11-12T03:25:47;101274.06;;;0.44;100.00
14253;BME280;7210;51.502;10.722;2022-11-12T03:28:33;101290.84;;;0.51;100.00
14253;BME280;7210;51.502;10.722;2022-11-12T03:31:20;101293.56;;;0.50;100.00
14253;BME280;7210;51.502;10.722;2022-11-12T03:34:10;101293.06;;;0.45;100.00
14253;BME280;7210;51.502;10.722;2022-11-12T03:36:56;101290.72;;;0.42;100.00
14253;BME280;7210;51.502;10.722;2022-11-12T03:39:42;101277.13;;;0.38;100.00
14253;BME280;7210;51.502;10.722;2022-11-12T03:42:44;101277.25;;;0.37;100.00
14253;BME280;7210;51.502;10.722;2022-11-12T03:45:36;101279.72;;;0.38;100.00
14253;BME280;7210;51.502;10.722;2022-11-12T03:48:23;101270.97;;;0.39;100.00
14253;BME280;7210;51.502;10.722;2022-11-12T03:51:09;101265.09;;;0.37;100.00
14253;BME280;7210;51.502;10.722;2022-11-12T03:53:55;101262.47;;;0.37;100.00
14253;BME280;7210;51.502;10.722;2022-11-12T03:56:41;101261.63;;;0.37;100.00
14253;BME280;7210;51.502;10.722;2022-11-12T03:59:27;101260.00;;;0.36;100.00
14253;BME280;7210;51.502;10.722;2022-11-12T04:02:12;101252.28;;;0.34;100.00
14253;BME280;7210;51.502;10.722;2022-11-12T04:05:07;101252.28;;;0.34;100.00
14253;BME280;7210;51.502;10.722;2022-11-12T04:08:14;101260.56;;;0.39;100.00
14253;BME280;7210;51.502;10.722;2022-11-12T04:11:21;101253.72;;;0.38;100.00
14253;BME280;7210;51.502;10.722;2022-11-12T04:14:07;101249.38;;;0.39;100.00
14253;BME280;7210;51.502;10.722;2022-11-12T04:16:53;101241.66;;;0.37;100.00
14253;BME280;7210;51.502;10.722;2022-11-12T04:19:56;101245.22;;;0.36;100.00
14253;BME280;7210;51.502;10.722;2022-11-12T04:23:01;101236.69;;;0.34;100.00
14253;BME280;7210;51.502;10.722;2022-11-12T04:25:47;101252.06;;;0.37;100.00
14253;BME280;7210;51.502;10.722;2022-11-12T04:28:51;101254.63;;;0.48;100.00
14253;BME280;7210;51.502;10.722;2022-11-12T04:31:55;101243.28;;;0.60;100.00
14253;BME280;7210;51.502;10.722;2022-11-12T04:34:40;101244.44;;;0.56;100.00
14253;BME280;7210;51.502;10.722;2022-11-12T04:37:29;101250.88;;;0.52;100.00
14253;BME280;7210;51.502;10.722;2022-11-12T04:40:30;101244.00;;;0.51;100.00
14253;BME280;7210;51.502;10.722;2022-11-12T04:43:51;101236.78;;;0.55;100.00
14253;BME280;7210;51.502;10.722;2022-11-12T04:46:54;101239.72;;;0.61;100.00
14253;BME280;7210;51.502;10.722;2022-11-12T04:49:40;101243.97;;;0.62;100.00
14253;BME280;7210;51.502;10.722;2022-11-12T04:52:28;101239.03;;;0.59;100.00
14253;BME280;7210;51.502;10.722;2022-11-12T04:55:15;101241.41;;;0.51;100.00
14253;BME280;7210;51.502;10.722;2022-11-12T04:58:03;101231.38;;;0.47;100.00
14253;BME280;7210;51.502;10.722;2022-11-12T05:00:57;101229.09;;;0.42;100.00
14253;BME280;7210;51.502;10.722;2022-11-12T05:03:43;101221.81;;;0.36;100.00
14253;BME280;7210;51.502;10.722;2022-11-12T05:06:28;101231.75;;;0.31;100.00
14253;BME280;7210;51.502;10.722;2022-11-12T05:09:32;101228.66;;;0.26;100.00
14253;BME280;7210;51.502;10.722;2022-11-12T05:12:18;101229.03;;;0.22;100.00
14253;BME280;7210;51.502;10.722;2022-11-12T05:15:06;101227.75;;;0.16;100.00
14253;BME280;7210;51.502;10.722;2022-11-12T05:17:52;101226.47;;;0.11;100.00
14253;BME280;7210;51.502;10.722;2022-11-12T05:20:39;101233.41;;;0.10;100.00
14253;BME280;7210;51.502;10.722;2022-11-12T05:23:33;101229.16;;;0.09;100.00
14253;BME280;7210;51.502;10.722;2022-11-12T05:26:19;101228.22;;;0.10;100.00
14253;BME280;7210;51.502;10.722;2022-11-12T05:29:05;101224.44;;;0.14;100.00
14253;BME280;7210;51.502;10.722;2022-11-12T05:31:52;101228.00;;;0.13;100.00
14253;BME280;7210;51.502;10.722;2022-11-12T05:34:39;101235.56;;;0.16;100.00
14253;BME280;7210;51.502;10.722;2022-11-12T05:37:25;101231.88;;;0.19;100.00
14253;BME280;7210;51.502;10.722;2022-11-12T05:40:12;101232.94;;;0.16;100.00
14253;BME280;7210;51.502;10.722;2022-11-12T05:42:58;101233.19;;;0.13;100.00
14253;BME280;7210;51.502;10.722;2022-11-12T05:45:44;101230.81;;;0.10;100.00
14253;BME280;7210;51.502;10.722;2022-11-12T05:48:31;101235.44;;;0.18;100.00
14253;BME280;7210;51.502;10.722;2022-11-12T05:51:21;101235.78;;;0.24;100.00
14253;BME280;7210;51.502;10.722;2022-11-12T05:54:07;101227.28;;;0.22;100.00
14253;BME280;7210;51.502;10.722;2022-11-12T05:57:03;101227.28;;;0.22;100.00
14253;BME280;7210;51.502;10.722;2022-11-12T06:00:03;101229.25;;;0.30;100.00
14253;BME280;7210;51.502;10.722;2022-11-12T06:02:56;101220.66;;;0.29;100.00
14253;BME280;7210;51.502;10.722;2022-11-12T06:05:46;101224.91;;;0.30;100.00
14253;BME280;7210;51.502;10.722;2022-11-12T06:08:32;101227.97;;;0.35;100.00
14253;BME280;7210;51.502;10.722;2022-11-12T06:11:18;101230.34;;;0.27;100.00
14253;BME280;7210;51.502;10.722;2022-11-12T06:14:06;101233.28;;;0.23;100.00
14253;BME280;7210;51.502;10.722;2022-11-12T06:16:51;101233.53;;;0.20;100.00
14253;BME280;7210;51.502;10.722;2022-11-12T06:19:37;101233.19;;;0.13;100.00
14253;BME280;7210;51.502;10.722;2022-11-12T06:22:25;101233.69;;;0.07;100.00
14253;BME280;7210;51.502;10.722;2022-11-12T06:25:11;101230.38;;;0.05;100.00
14253;BME280;7210;51.502;10.722;2022-11-12T06:27:59;101229.91;;;0.00;100.00
14253;BME280;7210;51.502;10.722;2022-11-12T06:30:46;101226.72;;;-0.03;100.00
14253;BME280;7210;51.502;10.722;2022-11-12T06:33:32;101228.94;;;0.01;100.00
14253;BME280;7210;51.502;10.722;2022-11-12T06:36:19;101236.63;;;0.03;100.00
14253;BME280;7210;51.502;10.722;2022-11-12T06:39:07;101235.56;;;0.05;100.00
14253;BME280;7210;51.502;10.722;2022-11-12T06:42:03;101241.94;;;0.12;100.00
14253;BME280;7210;51.502;10.722;2022-11-12T06:44:49;101253.53;;;0.19;100.00
14253;BME280;7210;51.502;10.722;2022-11-12T06:47:35;101251.38;;;0.24;100.00
14253;BME280;7210;51.502;10.722;2022-11-12T06:50:22;101251.38;;;0.24;100.00
14253;BME280;7210;51.502;10.722;2022-11-12T06:53:10;101259.41;;;0.32;100.00
14253;BME280;7210;51.502;10.722;2022-11-12T06:56:06;101263.22;;;0.28;100.00
14253;BME280;7210;51.502;10.722;2022-11-12T06:58:53;101260.00;;;0.36;100.00
14253;BME280;7210;51.502;10.722;2022-11-12T07:02:10;101260.22;;;0.44;100.00
14253;BME280;7210;51.502;10.722;2022-11-12T07:04:56;101271.91;;;0.49;100.00
14253;BME280;7210;51.502;10.722;2022-11-12T07:07:42;101274.75;;;0.46;100.00
14253;BME280;7210;51.502;10.722;2022-11-12T07:10:27;101268.84;;;0.44;100.00
14253;BME280;7210;51.502;10.722;2022-11-12T07:13:16;101270.50;;;0.45;100.00
14253;BME280;7210;51.502;10.722;2022-11-12T07:16:05;101266.25;;;0.44;100.00
14253;BME280;7210;51.502;10.722;2022-11-12T07:18:51;101265.41;;;0.55;100.00
14253;BME280;7210;51.502;10.722;2022-11-12T07:21:37;101269.50;;;0.57;100.00
14253;BME280;7210;51.502;10.722;2022-11-12T07:24:22;101259.09;;;0.57;100.00
14253;BME280;7210;51.502;10.722;2022-11-12T07:27:08;101268.22;;;0.63;100.00
14253;BME280;7210;51.502;10.722;2022-11-12T07:29:55;101271.16;;;0.69;100.00
14253;BME280;7210;51.502;10.722;2022-11-12T07:32:41;101269.94;;;0.73;100.00
14253;BME280;7210;51.502;10.722;2022-11-12T07:35:27;101278.53;;;0.85;100.00
14253;BME280;7210;51.502;10.722;2022-11-12T07:38:13;101259.06;;;0.79;100.00
14253;BME280;7210;51.502;10.722;2022-11-12T07:41:00;101260.91;;;0.88;100.00
14253;BME280;7210;51.502;10.722;2022-11-12T07:43:48;101268.22;;;0.94;100.00
14253;BME280;7210;51.502;10.722;2022-11-12T07:46:40;101271.78;;;0.93;100.00
14253;BME280;7210;51.502;10.722;2022-11-12T07:49:26;101248.16;;;0.85;100.00
14253;BME280;7210;51.502;10.722;2022-11-12T07:52:12;101269.66;;;0.98;100.00
14253;BME280;7210;51.502;10.722;2022-11-12T07:54:58;101268.56;;;1.01;100.00
14253;BME280;7210;51.502;10.722;2022-11-12T07:57:43;101251.22;;;0.90;100.00
14253;BME280;7210;51.502;10.722;2022-11-12T08:00:33;101249.31;;;0.92;100.00
14253;BME280;7210;51.502;10.722;2022-11-12T08:03:20;101274.69;;;1.11;100.00
14253;BME280;7210;51.502;10.722;2022-11-12T08:06:07;101269.78;;;1.17;100.00
14253;BME280;7210;51.502;10.722;2022-11-12T08:08:54;101267.75;;;1.21;100.00
14253;BME280;7210;51.502;10.722;2022-11-12T08:11:45;101269.94;;;1.36;100.00
14253;BME280;7210;51.502;10.722;2022-11-12T08:14:31;101280.47;;;1.55;100.00
14253;BME280;7210;51.502;10.722;2022-11-12T08:17:16;101270.50;;;1.60;100.00
14253;BME280;7210;51.502;10.722;2022-11-12T08:20:04;101275.00;;;1.58;100.00
14253;BME280;7210;51.502;10.722;2022-11-12T08:22:51;101284.84;;;1.55;100.00
14253;BME280;7210;51.502;10.722;2022-11-12T08:25:51;101296.09;;;1.55;100.00
14253;BME280;7210;51.502;10.722;2022-11-12T08:28:38;101292.81;;;1.53;100.00
14253;BME280;7210;51.502;10.722;2022-11-12T08:31:27;101285.19;;;1.61;100.00
14253;BME280;7210;51.502;10.722;2022-11-12T08:34:13;101297.06;;;1.75;100.00
14253;BME280;7210;51.502;10.722;2022-11-12T08:37:00;101295.47;;;1.83;100.00
14253;BME280;7210;51.502;10.722;2022-11-12T08:39:46;101302.38;;;1.94;100.00
14253;BME280;7210;51.502;10.722;2022-11-12T08:42:32;101299.81;;;2.03;100.00
14253;BME280;7210;51.502;10.722;2022-11-12T08:45:18;101300.34;;;2.37;100.00
14253;BME280;7210;51.502;10.722;2022-11-12T08:48:06;101298.75;;;2.45;100.00
14253;BME280;7210;51.502;10.722;2022-11-12T08:50:53;101294.09;;;2.58;100.00
14253;BME280;7210;51.502;10.722;2022-11-12T08:53:40;101298.69;;;2.75;100.00
14253;BME280;7210;51.502;10.722;2022-11-12T08:57:03;101303.50;;;2.89;100.00
14253;BME280;7210;51.502;10.722;2022-11-12T08:59:51;101298.72;;;2.94;100.00
14253;BME280;7210;51.502;10.722;2022-11-12T09:02:37;101287.03;;;2.89;100.00
14253;BME280;7210;51.502;10.722;2022-11-12T09:05:27;101295.81;;;2.97;100.00
14253;BME280;7210;51.502;10.722;2022-11-12T09:08:16;101291.44;;;3.07;100.00
14253;BME280;7210;51.502;10.722;2022-11-12T09:11:05;101300.09;;;3.17;100.00
14253;BME280;7210;51.502;10.722;2022-11-12T09:13:57;101289.22;;;3.31;100.00
14253;BME280;7210;51.502;10.722;2022-11-12T09:16:43;101292.38;;;3.44;100.00
14253;BME280;7210;51.502;10.722;2022-11-12T09:19:28;101294.56;;;3.58;100.00
14253;BME280;7210;51.502;10.722;2022-11-12T09:22:14;101290.53;;;3.73;100.00
14253;BME280;7210;51.502;10.722;2022-11-12T09:25:00;101285.53;;;3.89;100.00
14253;BME280;7210;51.502;10.722;2022-11-12T09:27:53;101277.00;;;3.96;100.00
14253;BME280;7210;51.502;10.722;2022-11-12T09:30:43;101241.25;;;3.78;100.00
14253;BME280;7210;51.502;10.722;2022-11-12T09:33:33;101254.94;;;3.99;100.00
14253;BME280;7210;51.502;10.722;2022-11-12T09:36:21;101279.34;;;4.26;100.00
14253;BME280;7210;51.502;10.722;2022-11-12T09:39:09;101270.75;;;4.34;100.00
14253;BME280;7210;51.502;10.722;2022-11-12T09:42:06;101260.81;;;4.37;100.00
14253;BME280;7210;51.502;10.722;2022-11-12T09:45:00;101272.84;;;4.57;100.00
14253;BME280;7210;51.502;10.722;2022-11-12T09:47:53;101263.84;;;4.60;100.00
14253;BME280;7210;51.502;10.722;2022-11-12T09:50:52;101261.66;;;4.82;100.00
14253;BME280;7210;51.502;10.722;2022-11-12T09:53:46;101251.53;;;5.05;100.00
14253;BME280;7210;51.502;10.722;2022-11-12T09:56:57;101257.88;;;5.37;100.00
14253;BME280;7210;51.502;10.722;2022-11-12T09:59:58;101263.16;;;5.63;100.00
14253;BME280;7210;51.502;10.722;2022-11-12T10:02:54;101254.28;;;5.81;100.00
14253;BME280;7210;51.502;10.722;2022-11-12T10:06:11;101248.66;;;6.02;100.00
14253;BME280;7210;51.502;10.722;2022-11-12T10:09:09;101245.81;;;6.29;100.00
14253;BME280;7210;51.502;10.722;2022-11-12T10:12:14;101254.09;;;6.50;100.00
14253;BME280;7210;51.502;10.722;2022-11-12T10:15:42;101251.88;;;6.87;100.00
14253;BME280;7210;51.502;10.722;2022-11-12T10:19:13;101250.56;;;6.99;100.00
14253;BME280;7210;51.502;10.722;2022-11-12T10:22:22;101235.16;;;7.12;100.00
14253;BME280;7210;51.502;10.722;2022-11-12T10:25:15;101234.50;;;7.33;100.00
14253;BME280;7210;51.502;10.722;2022-11-12T10:28:23;101232.84;;;7.48;100.00
14253;BME280;7210;51.502;10.722;2022-11-12T10:31:19;101227.53;;;7.64;100.00
14253;BME280;7210;51.502;10.722;2022-11-12T10:34:16;101213.03;;;7.68;100.00
14253;BME280;7210;51.502;10.722;2022-11-12T10:37:06;101218.94;;;7.78;100.00
14253;BME280;7210;51.502;10.722;2022-11-12T10:40:29;101217.44;;;7.92;100.00
14253;BME280;7210;51.502;10.722;2022-11-12T10:43:23;101209.97;;;8.03;100.00
14253;BME280;7210;51.502;10.722;2022-11-12T10:46:19;101214.38;;;8.19;100.00
14253;BME280;7210;51.502;10.722;2022-11-12T10:49:23;101205.91;;;8.31;100.00
14253;BME280;7210;51.502;10.722;2022-11-12T10:52:33;101204.16;;;8.54;100.00
14253;BME280;7210;51.502;10.722;2022-11-12T10:55:24;101197.66;;;8.65;100.00
14253;BME280;7210;51.502;10.722;2022-11-12T10:58:17;101213.38;;;8.81;100.00
14253;BME280;7210;51.502;10.722;2022-11-12T11:01:12;101207.50;;;8.93;100.00
14253;BME280;7210;51.502;10.722;2022-11-12T11:04:02;101207.38;;;9.09;100.00
14253;BME280;7210;51.502;10.722;2022-11-12T11:06:56;101205.91;;;9.29;100.00
14253;BME280;7210;51.502;10.722;2022-11-12T11:09:59;101201.81;;;9.41;100.00
14253;BME280;7210;51.502;10.722;2022-11-12T11:12:45;101198.38;;;9.55;100.00
14253;BME280;7210;51.502;10.722;2022-11-12T11:15:30;101199.13;;;9.49;100.00
14253;BME280;7210;51.502;10.722;2022-11-12T11:18:16;101195.41;;;9.58;100.00
14253;BME280;7210;51.502;10.722;2022-11-12T11:21:28;101184.84;;;9.73;99.96
14253;BME280;7210;51.502;10.722;2022-11-12T11:24:33;101193.03;;;9.92;99.57
14253;BME280;7210;51.502;10.722;2022-11-12T11:27:32;101183.47;;;10.06;98.99
14253;BME280;7210;51.502;10.722;2022-11-12T11:30:22;101179.19;;;10.19;98.42
14253;BME280;7210;51.502;10.722;2022-11-12T11:33:39;101179.59;;;10.37;97.62
14253;BME280;7210;51.502;10.722;2022-11-12T11:36:36;101174.47;;;10.50;97.13
14253;BME280;7210;51.502;10.722;2022-11-12T11:39:40;101175.03;;;10.67;96.48
14253;BME280;7210;51.502;10.722;2022-11-12T11:43:10;101163.69;;;10.73;95.74
14253;BME280;7210;51.502;10.722;2022-11-12T11:46:14;101169.81;;;10.73;95.49
14253;BME280;7210;51.502;10.722;2022-11-12T11:49:41;101161.50;;;10.76;95.04
14253;BME280;7210;51.502;10.722;2022-11-12T11:52:44;101154.88;;;10.87;95.02
14253;BME280;7210;51.502;10.722;2022-11-12T11:55:50;101144.94;;;11.16;94.64
14253;BME280;7210;51.502;10.722;2022-11-12T11:58:57;101140.53;;;11.23;93.86
14253;BME280;7210;51.502;10.722;2022-11-12T12:02:17;101135.22;;;11.23;93.59
14253;BME280;7210;51.502;10.722;2022-11-12T12:05:29;101135.84;;;11.25;93.13
14253;BME280;7210;51.502;10.722;2022-11-12T12:08:31;101126.16;;;11.38;92.64
14253;BME280;7210;51.502;10.722;2022-11-12T12:11:26;101125.06;;;11.26;91.98
14253;BME280;7210;51.502;10.722;2022-11-12T12:14:48;101120.56;;;11.27;91.61
14253;BME280;7210;51.502;10.722;2022-11-12T12:17:51;101115.81;;;11.16;91.28
14253;BME280;7210;51.502;10.722;2022-11-12T12:20:50;101125.19;;;11.12;91.24
14253;BME280;7210;51.502;10.722;2022-11-12T12:23:46;101110.06;;;11.06;91.29
14253;BME280;7210;51.502;10.722;2022-11-12T12:26:39;101125.53;;;11.09;91.22
14253;BME280;7210;51.502;10.722;2022-11-12T12:29:33;101114.81;;;11.17;91.01
14253;BME280;7210;51.502;10.722;2022-11-12T12:32:32;101113.22;;;11.22;91.13
14253;BME280;7210;51.502;10.722;2022-11-12T12:35:26;101108.19;;;11.34;91.18
14253;BME280;7210;51.502;10.722;2022-11-12T12:38:20;101104.00;;;11.46;91.06
14253;BME280;7210;51.502;10.722;2022-11-12T12:41:17;101104.44;;;11.49;90.44
14253;BME280;7210;51.502;10.722;2022-11-12T12:44:07;101106.66;;;11.46;90.11
14253;BME280;7210;51.502;10.722;2022-11-12T12:46:59;101109.31;;;11.46;89.85
14253;BME280;7210;51.502;10.722;2022-11-12T12:49:58;101096.31;;;11.51;89.10
14253;BME280;7210;51.502;10.722;2022-11-12T12:53:02;101089.97;;;11.52;88.61
14253;BME280;7210;51.502;10.722;2022-11-12T12:55:50;101074.09;;;11.52;88.07
14253;BME280;7210;51.502;10.722;2022-11-12T12:58:45;101084.28;;;11.55;87.92
14253;BME280;7210;51.502;10.722;2022-11-12T13:01:35;101081.59;;;11.48;87.95
14253;BME280;7210;51.502;10.722;2022-11-12T13:04:52;101084.03;;;11.50;88.71
14253;BME280;7210;51.502;10.722;2022-11-12T13:07:51;101055.03;;;11.29;88.71
14253;BME280;7210;51.502;10.722;2022-11-12T13:10:49;101093.41;;;11.46;89.23
14253;BME280;7210;51.502;10.722;2022-11-12T13:13:37;101094.16;;;11.33;89.07
14253;BME280;7210;51.502;10.722;2022-11-12T13:16:57;101096.53;;;11.22;89.63
14253;BME280;7210;51.502;10.722;2022-11-12T13:19:46;101104.97;;;11.11;89.98
14253;BME280;7210;51.502;10.722;2022-11-12T13:22:57;101104.91;;;10.98;90.62
14253;BME280;7210;51.502;10.722;2022-11-12T13:25:43;101112.59;;;10.93;91.09
14253;BME280;7210;51.502;10.722;2022-11-12T13:28:29;101114.94;;;10.82;91.64
14253;BME280;7210;51.502;10.722;2022-11-12T13:31:27;101108.53;;;10.70;92.28
14253;BME280;7210;51.502;10.722;2022-11-12T13:34:30;101124.59;;;10.68;92.67
14253;BME280;7210;51.502;10.722;2022-11-12T13:37:20;101125.38;;;10.69;93.25
14253;BME280;7210;51.502;10.722;2022-11-12T13:40:13;101123.97;;;10.66;93.87
14253;BME280;7210;51.502;10.722;2022-11-12T13:43:12;101129.25;;;10.66;94.36
14253;BME280;7210;51.502;10.722;2022-11-12T13:46:25;101124.94;;;10.65;94.99
14253;BME280;7210;51.502;10.722;2022-11-12T13:49:15;101133.44;;;10.61;95.59
14253;BME280;7210;51.502;10.722;2022-11-12T13:52:05;101124.22;;;10.50;95.96
14253;BME280;7210;51.502;10.722;2022-11-12T13:55:00;101137.06;;;10.53;96.41
14253;BME280;7210;51.502;10.722;2022-11-12T13:57:53;101134.16;;;10.48;96.87
14253;BME280;7210;51.502;10.722;2022-11-12T14:00:39;101130.00;;;10.39;96.95
14253;BME280;7210;51.502;10.722;2022-11-12T14:03:29;101128.19;;;10.25;96.96
14253;BME280;7210;51.502;10.722;2022-11-12T14:06:24;101136.25;;;10.17;97.36
14253;BME280;7210;51.502;10.722;2022-11-12T14:09:49;101142.72;;;10.15;98.45
14253;BME280;7210;51.502;10.722;2022-11-12T14:16:24;101142.47;;;10.10;99.46
14253;BME280;7210;51.502;10.722;2022-11-12T14:19:54;101140.19;;;10.07;99.66
14253;BME280;7210;51.502;10.722;2022-11-12T14:22:46;101133.34;;;9.98;100.00
14253;BME280;7210;51.502;10.722;2022-11-12T14:25:55;101145.38;;;10.00;100.00
14253;BME280;7210;51.502;10.722;2022-11-12T14:28:41;101141.66;;;9.95;100.00
14253;BME280;7210;51.502;10.722;2022-11-12T14:31:33;101139.44;;;9.84;100.00
14253;BME280;7210;51.502;10.722;2022-11-12T14:34:30;101144.66;;;9.77;100.00
14253;BME280;7210;51.502;10.722;2022-11-12T14:37:33;101151.88;;;9.69;100.00
14253;BME280;7210;51.502;10.722;2022-11-12T14:40:23;101147.41;;;9.55;100.00
14253;BME280;7210;51.502;10.722;2022-11-12T14:43:42;101125.72;;;9.30;100.00
14253;BME280;7210;51.502;10.722;2022-11-12T14:46:35;101143.09;;;9.25;100.00
14253;BME280;7210;51.502;10.722;2022-11-12T14:49:35;101138.78;;;9.09;100.00
14253;BME280;7210;51.502;10.722;2022-11-12T14:52:29;101147.97;;;8.99;100.00
14253;BME280;7210;51.502;10.722;2022-11-12T14:55:19;101147.56;;;8.87;100.00
14253;BME280;7210;51.502;10.722;2022-11-12T14:58:11;101145.34;;;8.76;100.00
14253;BME280;7210;51.502;10.722;2022-11-12T15:01:20;101136.38;;;8.63;100.00
14253;BME280;7210;51.502;10.722;2022-11-12T15:04:22;101132.41;;;8.44;100.00
14253;BME280;7210;51.502;10.722;2022-11-12T15:07:24;101140.00;;;8.39;100.00
14253;BME280;7210;51.502;10.722;2022-11-12T15:10:35;101148.31;;;8.28;100.00